sensor_id;sensor_type;location;lat;lon;timestamp;P1;durP1;ratioP1;P2;durP2;ratioP2
13720;SDS011;6932;51.438;5.470;2022-07-06T00:01:51;2.80;;;2.10;;
13720;SDS011;6932;51.438;5.470;2022-07-06T00:04:17;6.17;;;2.83;;
13720;SDS011;6932;51.438;5.470;2022-07-06T00:06:44;2.93;;;2.10;;
13720;SDS011;6932;51.438;5.470;2022-07-06T00:09:10;2.30;;;1.83;;
13720;SDS011;6932;51.438;5.470;2022-07-06T00:11:36;4.13;;;2.30;;
13720;SDS011;6932;51.438;5.470;2022-07-06T00:14:02;4.23;;;2.20;;
13720;SDS011;6932;51.438;5.470;2022-07-06T00:16:28;3.73;;;2.30;;
13720;SDS011;6932;51.438;5.470;2022-07-06T00:18:54;3.87;;;2.13;;
13720;SDS011;6932;51.438;5.470;2022-07-06T00:21:20;3.63;;;2.20;;
13720;SDS011;6932;51.438;5.470;2022-07-06T00:23:45;3.67;;;2.10;;
13720;SDS011;6932;51.438;5.470;2022-07-06T00:26:11;5.00;;;2.60;;
13720;SDS011;6932;51.438;5.470;2022-07-06T00:28:37;2.23;;;2.03;;
13720;SDS011;6932;51.438;5.470;2022-07-06T00:31:03;3.63;;;2.23;;
13720;SDS011;6932;51.438;5.470;2022-07-06T00:33:30;4.03;;;2.10;;
13720;SDS011;6932;51.438;5.470;2022-07-06T00:35:57;4.30;;;2.27;;
13720;SDS011;6932;51.438;5.470;2022-07-06T00:38:22;3.47;;;2.17;;
13720;SDS011;6932;51.438;5.470;2022-07-06T00:40:48;2.50;;;2.03;;
13720;SDS011;6932;51.438;5.470;2022-07-06T00:43:14;4.83;;;2.30;;
13720;SDS011;6932;51.438;5.470;2022-07-06T00:45:40;4.07;;;2.10;;
13720;SDS011;6932;51.438;5.470;2022-07-06T00:48:06;4.50;;;2.20;;
13720;SDS011;6932;51.438;5.470;2022-07-06T00:50:32;3.40;;;2.10;;
13720;SDS011;6932;51.438;5.470;2022-07-06T00:53:00;3.17;;;2.17;;
13720;SDS011;6932;51.438;5.470;2022-07-06T00:55:30;4.10;;;2.20;;
13720;SDS011;6932;51.438;5.470;2022-07-06T00:58:00;2.77;;;2.03;;
13720;SDS011;6932;51.438;5.470;2022-07-06T01:00:29;3.00;;;2.30;;
13720;SDS011;6932;51.438;5.470;2022-07-06T01:02:55;4.73;;;2.20;;
13720;SDS011;6932;51.438;5.470;2022-07-06T01:05:21;3.47;;;2.13;;
13720;SDS011;6932;51.438;5.470;2022-07-06T01:07:48;4.13;;;2.30;;
13720;SDS011;6932;51.438;5.470;2022-07-06T01:10:16;2.90;;;2.23;;
13720;SDS011;6932;51.438;5.470;2022-07-06T01:12:44;3.60;;;2.17;;
13720;SDS011;6932;51.438;5.470;2022-07-06T01:15:19;4.00;;;2.27;;
13720;SDS011;6932;51.438;5.470;2022-07-06T01:17:48;4.70;;;2.43;;
13720;SDS011;6932;51.438;5.470;2022-07-06T01:20:21;4.37;;;2.57;;
13720;SDS011;6932;51.438;5.470;2022-07-06T01:22:50;3.97;;;2.50;;
13720;SDS011;6932;51.438;5.470;2022-07-06T01:25:18;3.63;;;2.50;;
13720;SDS011;6932;51.438;5.470;2022-07-06T01:27:45;4.00;;;2.50;;
13720;SDS011;6932;51.438;5.470;2022-07-06T01:30:12;4.27;;;2.40;;
13720;SDS011;6932;51.438;5.470;2022-07-06T01:32:43;4.43;;;2.50;;
13720;SDS011;6932;51.438;5.470;2022-07-06T01:35:11;4.03;;;2.50;;
13720;SDS011;6932;51.438;5.470;2022-07-06T01:37:39;6.17;;;2.77;;
13720;SDS011;6932;51.438;5.470;2022-07-06T01:40:07;4.67;;;2.80;;
13720;SDS011;6932;51.438;5.470;2022-07-06T01:42:35;4.17;;;2.50;;
13720;SDS011;6932;51.438;5.470;2022-07-06T01:45:02;5.07;;;2.80;;
13720;SDS011;6932;51.438;5.470;2022-07-06T01:47:30;5.70;;;3.07;;
13720;SDS011;6932;51.438;5.470;2022-07-06T01:49:59;5.23;;;3.10;;
13720;SDS011;6932;51.438;5.470;2022-07-06T01:52:26;5.47;;;3.00;;
13720;SDS011;6932;51.438;5.470;2022-07-06T01:54:53;6.07;;;2.80;;
13720;SDS011;6932;51.438;5.470;2022-07-06T01:57:22;5.53;;;2.80;;
13720;SDS011;6932;51.438;5.470;2022-07-06T01:59:48;4.30;;;2.70;;
13720;SDS011;6932;51.438;5.470;2022-07-06T02:02:14;4.10;;;2.90;;
13720;SDS011;6932;51.438;5.470;2022-07-06T02:04:40;5.37;;;3.10;;
13720;SDS011;6932;51.438;5.470;2022-07-06T02:07:06;5.20;;;3.00;;
13720;SDS011;6932;51.438;5.470;2022-07-06T02:09:36;4.03;;;2.93;;
13720;SDS011;6932;51.438;5.470;2022-07-06T02:12:01;4.80;;;3.00;;
13720;SDS011;6932;51.438;5.470;2022-07-06T02:14:28;5.63;;;3.40;;
13720;SDS011;6932;51.438;5.470;2022-07-06T02:16:53;6.70;;;3.30;;
13720;SDS011;6932;51.438;5.470;2022-07-06T02:19:19;6.77;;;3.20;;
13720;SDS011;6932;51.438;5.470;2022-07-06T02:21:45;4.20;;;2.80;;
13720;SDS011;6932;51.438;5.470;2022-07-06T02:24:11;4.73;;;3.10;;
13720;SDS011;6932;51.438;5.470;2022-07-06T02:26:36;4.93;;;3.20;;
13720;SDS011;6932;51.438;5.470;2022-07-06T02:29:02;4.63;;;3.40;;
13720;SDS011;6932;51.438;5.470;2022-07-06T02:31:28;6.47;;;3.10;;
13720;SDS011;6932;51.438;5.470;2022-07-06T02:33:53;4.40;;;3.20;;
13720;SDS011;6932;51.438;5.470;2022-07-06T02:36:19;3.90;;;3.07;;
13720;SDS011;6932;51.438;5.470;2022-07-06T02:38:45;7.60;;;3.70;;
13720;SDS011;6932;51.438;5.470;2022-07-06T02:41:10;5.10;;;3.47;;
13720;SDS011;6932;51.438;5.470;2022-07-06T02:43:37;4.83;;;3.00;;
13720;SDS011;6932;51.438;5.470;2022-07-06T02:46:05;5.37;;;3.30;;
13720;SDS011;6932;51.438;5.470;2022-07-06T02:48:33;5.57;;;3.27;;
13720;SDS011;6932;51.438;5.470;2022-07-06T02:50:58;5.47;;;2.87;;
13720;SDS011;6932;51.438;5.470;2022-07-06T02:53:24;4.77;;;3.30;;
13720;SDS011;6932;51.438;5.470;2022-07-06T02:55:50;5.37;;;3.23;;
13720;SDS011;6932;51.438;5.470;2022-07-06T02:58:16;4.13;;;3.00;;
13720;SDS011;6932;51.438;5.470;2022-07-06T03:00:41;7.30;;;3.37;;
13720;SDS011;6932;51.438;5.470;2022-07-06T03:03:07;4.60;;;3.00;;
13720;SDS011;6932;51.438;5.470;2022-07-06T03:05:34;4.50;;;3.30;;
13720;SDS011;6932;51.438;5.470;2022-07-06T03:08:00;5.10;;;3.00;;
13720;SDS011;6932;51.438;5.470;2022-07-06T03:10:25;4.17;;;2.80;;
13720;SDS011;6932;51.438;5.470;2022-07-06T03:12:51;3.67;;;2.80;;
13720;SDS011;6932;51.438;5.470;2022-07-06T03:15:17;4.97;;;3.00;;
13720;SDS011;6932;51.438;5.470;2022-07-06T03:17:42;4.97;;;2.80;;
13720;SDS011;6932;51.438;5.470;2022-07-06T03:20:08;4.90;;;2.90;;
13720;SDS011;6932;51.438;5.470;2022-07-06T03:22:34;4.63;;;3.20;;
13720;SDS011;6932;51.438;5.470;2022-07-06T03:25:00;4.63;;;3.10;;
13720;SDS011;6932;51.438;5.470;2022-07-06T03:27:26;5.03;;;3.10;;
13720;SDS011;6932;51.438;5.470;2022-07-06T03:29:52;3.80;;;2.73;;
13720;SDS011;6932;51.438;5.470;2022-07-06T03:32:17;4.83;;;3.10;;
13720;SDS011;6932;51.438;5.470;2022-07-06T03:34:43;4.60;;;2.80;;
13720;SDS011;6932;51.438;5.470;2022-07-06T03:37:09;5.30;;;3.10;;
13720;SDS011;6932;51.438;5.470;2022-07-06T03:39:35;4.23;;;2.80;;
13720;SDS011;6932;51.438;5.470;2022-07-06T03:42:00;5.17;;;2.73;;
13720;SDS011;6932;51.438;5.470;2022-07-06T03:44:26;4.60;;;2.80;;
13720;SDS011;6932;51.438;5.470;2022-07-06T03:46:52;5.60;;;2.90;;
13720;SDS011;6932;51.438;5.470;2022-07-06T03:49:20;5.30;;;3.00;;
13720;SDS011;6932;51.438;5.470;2022-07-06T03:51:47;4.90;;;2.93;;
13720;SDS011;6932;51.438;5.470;2022-07-06T03:54:12;4.67;;;3.00;;
13720;SDS011;6932;51.438;5.470;2022-07-06T03:56:38;4.93;;;3.10;;
13720;SDS011;6932;51.438;5.470;2022-07-06T03:59:04;5.90;;;3.07;;
13720;SDS011;6932;51.438;5.470;2022-07-06T04:01:30;5.87;;;2.77;;
13720;SDS011;6932;51.438;5.470;2022-07-06T04:03:56;3.97;;;2.50;;
13720;SDS011;6932;51.438;5.470;2022-07-06T04:06:22;4.63;;;2.87;;
13720;SDS011;6932;51.438;5.470;2022-07-06T04:08:48;5.07;;;3.10;;
13720;SDS011;6932;51.438;5.470;2022-07-06T04:11:14;3.33;;;2.70;;
13720;SDS011;6932;51.438;5.470;2022-07-06T04:13:40;6.70;;;2.97;;
13720;SDS011;6932;51.438;5.470;2022-07-06T04:16:06;4.60;;;2.87;;
13720;SDS011;6932;51.438;5.470;2022-07-06T04:18:32;4.40;;;2.73;;
13720;SDS011;6932;51.438;5.470;2022-07-06T04:21:00;4.47;;;3.00;;
13720;SDS011;6932;51.438;5.470;2022-07-06T04:23:27;3.83;;;2.63;;
13720;SDS011;6932;51.438;5.470;2022-07-06T04:25:53;5.70;;;2.80;;
13720;SDS011;6932;51.438;5.470;2022-07-06T04:28:20;5.53;;;2.80;;
13720;SDS011;6932;51.438;5.470;2022-07-06T04:30:45;4.17;;;2.73;;
13720;SDS011;6932;51.438;5.470;2022-07-06T04:33:12;5.17;;;2.70;;
13720;SDS011;6932;51.438;5.470;2022-07-06T04:35:38;3.80;;;2.60;;
13720;SDS011;6932;51.438;5.470;2022-07-06T04:38:04;3.57;;;2.60;;
13720;SDS011;6932;51.438;5.470;2022-07-06T04:40:30;3.77;;;2.63;;
13720;SDS011;6932;51.438;5.470;2022-07-06T04:42:56;4.17;;;2.50;;
13720;SDS011;6932;51.438;5.470;2022-07-06T04:45:22;4.07;;;2.73;;
13720;SDS011;6932;51.438;5.470;2022-07-06T04:47:47;4.20;;;2.70;;
13720;SDS011;6932;51.438;5.470;2022-07-06T04:50:13;4.53;;;2.53;;
13720;SDS011;6932;51.438;5.470;2022-07-06T04:52:39;2.93;;;2.17;;
13720;SDS011;6932;51.438;5.470;2022-07-06T04:55:05;4.73;;;3.00;;
13720;SDS011;6932;51.438;5.470;2022-07-06T04:57:31;3.93;;;2.70;;
13720;SDS011;6932;51.438;5.470;2022-07-06T04:59:57;4.00;;;2.50;;
13720;SDS011;6932;51.438;5.470;2022-07-06T05:02:23;3.80;;;2.63;;
13720;SDS011;6932;51.438;5.470;2022-07-06T05:04:49;4.13;;;2.23;;
13720;SDS011;6932;51.438;5.470;2022-07-06T05:07:15;3.30;;;2.40;;
13720;SDS011;6932;51.438;5.470;2022-07-06T05:09:41;4.50;;;2.60;;
13720;SDS011;6932;51.438;5.470;2022-07-06T05:12:07;3.50;;;2.20;;
13720;SDS011;6932;51.438;5.470;2022-07-06T05:14:34;5.10;;;2.37;;
13720;SDS011;6932;51.438;5.470;2022-07-06T05:17:00;4.23;;;2.30;;
13720;SDS011;6932;51.438;5.470;2022-07-06T05:19:26;3.47;;;2.40;;
13720;SDS011;6932;51.438;5.470;2022-07-06T05:21:52;4.40;;;2.60;;
13720;SDS011;6932;51.438;5.470;2022-07-06T05:24:18;6.10;;;2.13;;
13720;SDS011;6932;51.438;5.470;2022-07-06T05:26:44;2.43;;;2.20;;
13720;SDS011;6932;51.438;5.470;2022-07-06T05:29:10;3.13;;;2.13;;
13720;SDS011;6932;51.438;5.470;2022-07-06T05:31:36;2.90;;;2.00;;
13720;SDS011;6932;51.438;5.470;2022-07-06T05:34:02;4.07;;;2.07;;
13720;SDS011;6932;51.438;5.470;2022-07-06T05:36:28;4.87;;;2.10;;
13720;SDS011;6932;51.438;5.470;2022-07-06T05:38:54;3.20;;;2.30;;
13720;SDS011;6932;51.438;5.470;2022-07-06T05:41:20;2.67;;;2.10;;
13720;SDS011;6932;51.438;5.470;2022-07-06T05:43:45;2.10;;;1.80;;
13720;SDS011;6932;51.438;5.470;2022-07-06T05:46:11;2.63;;;1.90;;
13720;SDS011;6932;51.438;5.470;2022-07-06T05:48:37;2.80;;;1.73;;
13720;SDS011;6932;51.438;5.470;2022-07-06T05:51:20;2.47;;;1.80;;
13720;SDS011;6932;51.438;5.470;2022-07-06T05:53:46;2.57;;;1.60;;
13720;SDS011;6932;51.438;5.470;2022-07-06T05:56:12;2.70;;;1.57;;
13720;SDS011;6932;51.438;5.470;2022-07-06T05:58:39;2.73;;;1.50;;
13720;SDS011;6932;51.438;5.470;2022-07-06T06:01:04;2.27;;;1.70;;
13720;SDS011;6932;51.438;5.470;2022-07-06T06:03:32;3.80;;;1.60;;
13720;SDS011;6932;51.438;5.470;2022-07-06T06:05:58;2.37;;;1.50;;
13720;SDS011;6932;51.438;5.470;2022-07-06T06:08:24;2.13;;;1.17;;
13720;SDS011;6932;51.438;5.470;2022-07-06T06:10:50;1.47;;;1.30;;
13720;SDS011;6932;51.438;5.470;2022-07-06T06:13:16;1.97;;;1.37;;
13720;SDS011;6932;51.438;5.470;2022-07-06T06:15:42;2.27;;;1.13;;
13720;SDS011;6932;51.438;5.470;2022-07-06T06:18:08;1.63;;;1.27;;
13720;SDS011;6932;51.438;5.470;2022-07-06T06:20:34;1.77;;;1.17;;
13720;SDS011;6932;51.438;5.470;2022-07-06T06:23:00;2.23;;;1.20;;
13720;SDS011;6932;51.438;5.470;2022-07-06T06:25:33;1.20;;;1.10;;
13720;SDS011;6932;51.438;5.470;2022-07-06T06:28:05;2.47;;;1.10;;
13720;SDS011;6932;51.438;5.470;2022-07-06T06:30:35;1.20;;;1.10;;
13720;SDS011;6932;51.438;5.470;2022-07-06T06:35:43;1.73;;;1.20;;
13720;SDS011;6932;51.438;5.470;2022-07-06T06:38:14;1.57;;;1.00;;
13720;SDS011;6932;51.438;5.470;2022-07-06T06:40:42;1.87;;;1.10;;
13720;SDS011;6932;51.438;5.470;2022-07-06T06:43:08;1.30;;;1.10;;
13720;SDS011;6932;51.438;5.470;2022-07-06T06:45:34;2.87;;;1.10;;
13720;SDS011;6932;51.438;5.470;2022-07-06T06:48:00;1.23;;;1.00;;
13720;SDS011;6932;51.438;5.470;2022-07-06T06:50:26;4.20;;;1.33;;
13720;SDS011;6932;51.438;5.470;2022-07-06T06:52:52;2.20;;;1.10;;
13720;SDS011;6932;51.438;5.470;2022-07-06T06:55:18;1.60;;;1.10;;
13720;SDS011;6932;51.438;5.470;2022-07-06T06:57:44;2.23;;;1.10;;
13720;SDS011;6932;51.438;5.470;2022-07-06T07:00:11;1.90;;;1.20;;
13720;SDS011;6932;51.438;5.470;2022-07-06T07:02:37;2.10;;;1.50;;
13720;SDS011;6932;51.438;5.470;2022-07-06T07:05:03;1.17;;;0.90;;
13720;SDS011;6932;51.438;5.470;2022-07-06T07:07:30;1.73;;;1.00;;
13720;SDS011;6932;51.438;5.470;2022-07-06T07:09:57;1.47;;;1.03;;
13720;SDS011;6932;51.438;5.470;2022-07-06T07:12:23;1.33;;;1.00;;
13720;SDS011;6932;51.438;5.470;2022-07-06T07:14:49;1.70;;;1.20;;
13720;SDS011;6932;51.438;5.470;2022-07-06T07:17:15;1.70;;;1.10;;
13720;SDS011;6932;51.438;5.470;2022-07-06T07:19:41;0.80;;;0.80;;
13720;SDS011;6932;51.438;5.470;2022-07-06T07:22:07;2.10;;;0.90;;
13720;SDS011;6932;51.438;5.470;2022-07-06T07:24:33;1.70;;;1.20;;
13720;SDS011;6932;51.438;5.470;2022-07-06T07:26:59;0.63;;;0.63;;
13720;SDS011;6932;51.438;5.470;2022-07-06T07:29:25;2.23;;;0.70;;
13720;SDS011;6932;51.438;5.470;2022-07-06T07:31:51;1.90;;;0.90;;
13720;SDS011;6932;51.438;5.470;2022-07-06T07:34:17;1.20;;;0.80;;
13720;SDS011;6932;51.438;5.470;2022-07-06T07:36:43;2.00;;;0.80;;
13720;SDS011;6932;51.438;5.470;2022-07-06T07:39:08;0.87;;;0.70;;
13720;SDS011;6932;51.438;5.470;2022-07-06T07:41:34;0.70;;;0.60;;
13720;SDS011;6932;51.438;5.470;2022-07-06T07:44:00;0.93;;;0.67;;
13720;SDS011;6932;51.438;5.470;2022-07-06T07:46:25;2.70;;;0.70;;
13720;SDS011;6932;51.438;5.470;2022-07-06T07:48:51;1.47;;;0.60;;
13720;SDS011;6932;51.438;5.470;2022-07-06T07:51:17;0.50;;;0.50;;
13720;SDS011;6932;51.438;5.470;2022-07-06T07:53:44;1.10;;;0.50;;
13720;SDS011;6932;51.438;5.470;2022-07-06T07:56:10;1.43;;;0.60;;
13720;SDS011;6932;51.438;5.470;2022-07-06T07:58:36;0.43;;;0.40;;
13720;SDS011;6932;51.438;5.470;2022-07-06T08:01:02;1.77;;;0.73;;
13720;SDS011;6932;51.438;5.470;2022-07-06T08:03:29;1.57;;;0.60;;
13720;SDS011;6932;51.438;5.470;2022-07-06T08:05:56;0.87;;;0.73;;
13720;SDS011;6932;51.438;5.470;2022-07-06T08:08:23;1.27;;;0.53;;
13720;SDS011;6932;51.438;5.470;2022-07-06T08:10:49;0.70;;;0.50;;
13720;SDS011;6932;51.438;5.470;2022-07-06T08:13:14;0.93;;;0.40;;
13720;SDS011;6932;51.438;5.470;2022-07-06T08:15:40;0.93;;;0.60;;
13720;SDS011;6932;51.438;5.470;2022-07-06T08:18:07;1.20;;;0.40;;
13720;SDS011;6932;51.438;5.470;2022-07-06T08:20:34;0.40;;;0.40;;
13720;SDS011;6932;51.438;5.470;2022-07-06T08:23:01;0.67;;;0.30;;
13720;SDS011;6932;51.438;5.470;2022-07-06T08:25:27;1.03;;;0.60;;
13720;SDS011;6932;51.438;5.470;2022-07-06T08:27:54;1.43;;;0.53;;
13720;SDS011;6932;51.438;5.470;2022-07-06T08:30:19;0.97;;;0.60;;
13720;SDS011;6932;51.438;5.470;2022-07-06T08:32:45;1.50;;;0.50;;
13720;SDS011;6932;51.438;5.470;2022-07-06T08:35:11;1.50;;;0.60;;
13720;SDS011;6932;51.438;5.470;2022-07-06T08:37:37;2.37;;;0.70;;
13720;SDS011;6932;51.438;5.470;2022-07-06T08:40:04;0.90;;;0.40;;
13720;SDS011;6932;51.438;5.470;2022-07-06T08:42:32;1.63;;;0.40;;
13720;SDS011;6932;51.438;5.470;2022-07-06T08:45:00;0.87;;;0.67;;
13720;SDS011;6932;51.438;5.470;2022-07-06T08:47:28;1.60;;;0.60;;
13720;SDS011;6932;51.438;5.470;2022-07-06T08:49:55;0.63;;;0.63;;
13720;SDS011;6932;51.438;5.470;2022-07-06T08:52:24;2.20;;;0.70;;
13720;SDS011;6932;51.438;5.470;2022-07-06T08:54:50;0.97;;;0.70;;
13720;SDS011;6932;51.438;5.470;2022-07-06T08:57:16;1.80;;;0.70;;
13720;SDS011;6932;51.438;5.470;2022-07-06T08:59:43;0.97;;;0.50;;
13720;SDS011;6932;51.438;5.470;2022-07-06T09:02:09;2.00;;;0.70;;
13720;SDS011;6932;51.438;5.470;2022-07-06T09:04:37;0.70;;;0.60;;
13720;SDS011;6932;51.438;5.470;2022-07-06T09:07:03;1.60;;;0.70;;
13720;SDS011;6932;51.438;5.470;2022-07-06T09:09:29;4.17;;;1.00;;
13720;SDS011;6932;51.438;5.470;2022-07-06T09:11:56;1.83;;;0.90;;
13720;SDS011;6932;51.438;5.470;2022-07-06T09:14:23;8.88;;;1.15;;
13720;SDS011;6932;51.438;5.470;2022-07-06T09:16:52;3.57;;;1.00;;
13720;SDS011;6932;51.438;5.470;2022-07-06T09:19:33;3.40;;;1.10;;
13720;SDS011;6932;51.438;5.470;2022-07-06T09:22:00;0.70;;;0.70;;
13720;SDS011;6932;51.438;5.470;2022-07-06T09:24:27;2.73;;;0.93;;
13720;SDS011;6932;51.438;5.470;2022-07-06T09:26:56;1.10;;;0.70;;
13720;SDS011;6932;51.438;5.470;2022-07-06T09:29:29;1.83;;;1.00;;
13720;SDS011;6932;51.438;5.470;2022-07-06T09:32:00;1.07;;;0.70;;
13720;SDS011;6932;51.438;5.470;2022-07-06T09:34:41;1.10;;;0.70;;
13720;SDS011;6932;51.438;5.470;2022-07-06T09:37:11;1.93;;;0.67;;
13720;SDS011;6932;51.438;5.470;2022-07-06T09:39:39;1.80;;;0.70;;
13720;SDS011;6932;51.438;5.470;2022-07-06T09:42:06;2.30;;;0.70;;
13720;SDS011;6932;51.438;5.470;2022-07-06T09:44:36;1.53;;;0.80;;
13720;SDS011;6932;51.438;5.470;2022-07-06T09:47:06;0.60;;;0.60;;
13720;SDS011;6932;51.438;5.470;2022-07-06T09:49:37;2.70;;;0.80;;
13720;SDS011;6932;51.438;5.470;2022-07-06T09:52:05;0.70;;;0.50;;
13720;SDS011;6932;51.438;5.470;2022-07-06T09:54:36;0.73;;;0.57;;
13720;SDS011;6932;51.438;5.470;2022-07-06T09:57:04;2.10;;;0.87;;
13720;SDS011;6932;51.438;5.470;2022-07-06T09:59:31;0.93;;;0.70;;
13720;SDS011;6932;51.438;5.470;2022-07-06T10:02:01;1.03;;;0.77;;
13720;SDS011;6932;51.438;5.470;2022-07-06T10:04:30;1.50;;;0.80;;
13720;SDS011;6932;51.438;5.470;2022-07-06T10:06:57;1.50;;;0.60;;
13720;SDS011;6932;51.438;5.470;2022-07-06T10:09:27;1.03;;;0.50;;
13720;SDS011;6932;51.438;5.470;2022-07-06T10:14:26;1.53;;;0.90;;
13720;SDS011;6932;51.438;5.470;2022-07-06T10:17:02;1.03;;;0.57;;
13720;SDS011;6932;51.438;5.470;2022-07-06T10:19:30;2.37;;;0.80;;
13720;SDS011;6932;51.438;5.470;2022-07-06T10:21:58;0.87;;;0.70;;
13720;SDS011;6932;51.438;5.470;2022-07-06T10:24:28;2.37;;;0.80;;
13720;SDS011;6932;51.438;5.470;2022-07-06T10:26:55;1.17;;;0.60;;
13720;SDS011;6932;51.438;5.470;2022-07-06T10:29:21;2.40;;;0.90;;
13720;SDS011;6932;51.438;5.470;2022-07-06T10:31:49;1.33;;;0.70;;
13720;SDS011;6932;51.438;5.470;2022-07-06T10:34:17;1.67;;;0.83;;
13720;SDS011;6932;51.438;5.470;2022-07-06T10:36:47;1.23;;;0.77;;
13720;SDS011;6932;51.438;5.470;2022-07-06T10:39:32;1.23;;;0.70;;
13720;SDS011;6932;51.438;5.470;2022-07-06T10:45:20;1.63;;;0.80;;
13720;SDS011;6932;51.438;5.470;2022-07-06T10:50:41;0.93;;;0.53;;
13720;SDS011;6932;51.438;5.470;2022-07-06T10:53:22;1.87;;;0.83;;
13720;SDS011;6932;51.438;5.470;2022-07-06T10:55:59;1.27;;;0.70;;
13720;SDS011;6932;51.438;5.470;2022-07-06T11:01:20;0.60;;;0.50;;
13720;SDS011;6932;51.438;5.470;2022-07-06T11:03:47;1.30;;;0.70;;
13720;SDS011;6932;51.438;5.470;2022-07-06T11:06:31;1.57;;;0.70;;
13720;SDS011;6932;51.438;5.470;2022-07-06T11:09:04;1.47;;;0.70;;
13720;SDS011;6932;51.438;5.470;2022-07-06T11:13:59;1.03;;;0.50;;
13720;SDS011;6932;51.438;5.470;2022-07-06T11:19:13;1.40;;;0.80;;
13720;SDS011;6932;51.438;5.470;2022-07-06T11:22:26;3.03;;;1.00;;
13720;SDS011;6932;51.438;5.470;2022-07-06T11:24:39;2.37;;;1.00;;
13720;SDS011;6932;51.438;5.470;2022-07-06T11:27:06;0.60;;;0.50;;
13720;SDS011;6932;51.438;5.470;2022-07-06T11:29:38;0.93;;;0.50;;
13720;SDS011;6932;51.438;5.470;2022-07-06T11:32:04;2.53;;;0.60;;
13720;SDS011;6932;51.438;5.470;2022-07-06T11:34:35;1.50;;;0.90;;
13720;SDS011;6932;51.438;5.470;2022-07-06T11:37:08;0.93;;;0.70;;
13720;SDS011;6932;51.438;5.470;2022-07-06T11:39:40;0.47;;;0.40;;
13720;SDS011;6932;51.438;5.470;2022-07-06T11:42:08;1.60;;;0.60;;
13720;SDS011;6932;51.438;5.470;2022-07-06T11:44:36;1.73;;;0.70;;
13720;SDS011;6932;51.438;5.470;2022-07-06T11:47:04;1.10;;;0.70;;
13720;SDS011;6932;51.438;5.470;2022-07-06T11:49:31;3.77;;;0.60;;
13720;SDS011;6932;51.438;5.470;2022-07-06T11:51:59;3.70;;;0.70;;
13720;SDS011;6932;51.438;5.470;2022-07-06T11:54:31;0.97;;;0.77;;
13720;SDS011;6932;51.438;5.470;2022-07-06T11:56:58;2.37;;;0.80;;
13720;SDS011;6932;51.438;5.470;2022-07-06T11:59:25;1.70;;;0.80;;
13720;SDS011;6932;51.438;5.470;2022-07-06T12:02:13;0.90;;;0.63;;
13720;SDS011;6932;51.438;5.470;2022-07-06T12:04:42;1.40;;;0.80;;
13720;SDS011;6932;51.438;5.470;2022-07-06T12:07:11;2.03;;;1.00;;
13720;SDS011;6932;51.438;5.470;2022-07-06T12:09:41;1.17;;;0.90;;
13720;SDS011;6932;51.438;5.470;2022-07-06T12:12:10;1.77;;;1.00;;
13720;SDS011;6932;51.438;5.470;2022-07-06T12:14:37;1.70;;;1.20;;
13720;SDS011;6932;51.438;5.470;2022-07-06T12:17:08;1.33;;;0.80;;
13720;SDS011;6932;51.438;5.470;2022-07-06T12:19:37;1.13;;;0.80;;
13720;SDS011;6932;51.438;5.470;2022-07-06T12:22:04;2.13;;;0.80;;
13720;SDS011;6932;51.438;5.470;2022-07-06T12:24:32;1.40;;;0.80;;
13720;SDS011;6932;51.438;5.470;2022-07-06T12:27:10;1.85;;;0.77;;
13720;SDS011;6932;51.438;5.470;2022-07-06T12:29:40;2.37;;;0.87;;
13720;SDS011;6932;51.438;5.470;2022-07-06T12:32:07;1.23;;;0.60;;
13720;SDS011;6932;51.438;5.470;2022-07-06T12:34:44;2.80;;;0.65;;
13720;SDS011;6932;51.438;5.470;2022-07-06T12:37:10;2.03;;;0.70;;
13720;SDS011;6932;51.438;5.470;2022-07-06T12:39:47;0.87;;;0.70;;
13720;SDS011;6932;51.438;5.470;2022-07-06T12:42:15;3.43;;;1.10;;
13720;SDS011;6932;51.438;5.470;2022-07-06T12:44:47;1.63;;;0.90;;
13720;SDS011;6932;51.438;5.470;2022-07-06T12:47:18;3.17;;;1.10;;
13720;SDS011;6932;51.438;5.470;2022-07-06T12:50:09;4.85;;;1.60;;
13720;SDS011;6932;51.438;5.470;2022-07-06T12:52:36;1.45;;;0.93;;
13720;SDS011;6932;51.438;5.470;2022-07-06T12:55:04;1.20;;;1.00;;
13720;SDS011;6932;51.438;5.470;2022-07-06T12:57:44;2.05;;;1.10;;
13720;SDS011;6932;51.438;5.470;2022-07-06T13:00:14;1.07;;;0.93;;
13720;SDS011;6932;51.438;5.470;2022-07-06T13:02:43;0.60;;;0.60;;
13720;SDS011;6932;51.438;5.470;2022-07-06T13:05:12;2.43;;;0.90;;
13720;SDS011;6932;51.438;5.470;2022-07-06T13:07:46;2.20;;;1.03;;
13720;SDS011;6932;51.438;5.470;2022-07-06T13:10:14;2.20;;;1.00;;
13720;SDS011;6932;51.438;5.470;2022-07-06T13:12:41;1.63;;;1.00;;
13720;SDS011;6932;51.438;5.470;2022-07-06T13:15:09;1.83;;;1.10;;
13720;SDS011;6932;51.438;5.470;2022-07-06T13:17:36;2.20;;;1.15;;
13720;SDS011;6932;51.438;5.470;2022-07-06T13:20:05;2.40;;;0.80;;
13720;SDS011;6932;51.438;5.470;2022-07-06T13:22:33;1.47;;;0.90;;
13720;SDS011;6932;51.438;5.470;2022-07-06T13:24:59;2.40;;;0.85;;
13720;SDS011;6932;51.438;5.470;2022-07-06T13:27:25;1.63;;;0.70;;
13720;SDS011;6932;51.438;5.470;2022-07-06T13:29:51;1.00;;;0.90;;
13720;SDS011;6932;51.438;5.470;2022-07-06T13:32:17;3.78;;;0.90;;
13720;SDS011;6932;51.438;5.470;2022-07-06T13:34:43;1.83;;;0.98;;
13720;SDS011;6932;51.438;5.470;2022-07-06T13:37:08;1.13;;;0.73;;
13720;SDS011;6932;51.438;5.470;2022-07-06T13:39:34;2.08;;;1.20;;
13720;SDS011;6932;51.438;5.470;2022-07-06T13:42:00;2.15;;;1.10;;
13720;SDS011;6932;51.438;5.470;2022-07-06T13:44:26;2.75;;;1.17;;
13720;SDS011;6932;51.438;5.470;2022-07-06T13:46:51;1.63;;;0.90;;
13720;SDS011;6932;51.438;5.470;2022-07-06T13:49:17;1.98;;;1.10;;
13720;SDS011;6932;51.438;5.470;2022-07-06T13:51:43;1.65;;;1.05;;
13720;SDS011;6932;51.438;5.470;2022-07-06T13:54:10;2.80;;;1.02;;
13720;SDS011;6932;51.438;5.470;2022-07-06T13:56:36;2.63;;;1.05;;
13720;SDS011;6932;51.438;5.470;2022-07-06T13:59:04;2.50;;;1.08;;
13720;SDS011;6932;51.438;5.470;2022-07-06T14:01:30;1.70;;;0.80;;
13720;SDS011;6932;51.438;5.470;2022-07-06T14:03:57;1.40;;;0.90;;
13720;SDS011;6932;51.438;5.470;2022-07-06T14:06:22;2.15;;;1.00;;
13720;SDS011;6932;51.438;5.470;2022-07-06T14:08:48;2.45;;;1.10;;
13720;SDS011;6932;51.438;5.470;2022-07-06T14:11:14;2.25;;;1.00;;
13720;SDS011;6932;51.438;5.470;2022-07-06T14:13:40;1.92;;;1.10;;
13720;SDS011;6932;51.438;5.470;2022-07-06T14:16:06;3.92;;;1.10;;
13720;SDS011;6932;51.438;5.470;2022-07-06T14:18:33;2.15;;;1.00;;
13720;SDS011;6932;51.438;5.470;2022-07-06T14:20:59;1.73;;;1.00;;
13720;SDS011;6932;51.438;5.470;2022-07-06T14:23:28;1.20;;;0.90;;
13720;SDS011;6932;51.438;5.470;2022-07-06T14:25:55;2.00;;;1.10;;
13720;SDS011;6932;51.438;5.470;2022-07-06T14:28:22;1.98;;;0.93;;
13720;SDS011;6932;51.438;5.470;2022-07-06T14:30:48;1.55;;;1.00;;
13720;SDS011;6932;51.438;5.470;2022-07-06T14:33:14;1.13;;;0.95;;
13720;SDS011;6932;51.438;5.470;2022-07-06T14:35:42;1.17;;;0.90;;
13720;SDS011;6932;51.438;5.470;2022-07-06T14:38:16;0.80;;;0.80;;
13720;SDS011;6932;51.438;5.470;2022-07-06T14:40:43;3.22;;;1.17;;
13720;SDS011;6932;51.438;5.470;2022-07-06T14:43:09;1.95;;;1.20;;
13720;SDS011;6932;51.438;5.470;2022-07-06T14:45:36;1.98;;;1.05;;
13720;SDS011;6932;51.438;5.470;2022-07-06T14:48:02;1.77;;;1.00;;
13720;SDS011;6932;51.438;5.470;2022-07-06T14:50:30;2.10;;;1.20;;
13720;SDS011;6932;51.438;5.470;2022-07-06T14:52:56;1.27;;;1.00;;
13720;SDS011;6932;51.438;5.470;2022-07-06T14:55:22;6.70;;;1.00;;
13720;SDS011;6932;51.438;5.470;2022-07-06T14:57:48;1.70;;;1.00;;
13720;SDS011;6932;51.438;5.470;2022-07-06T15:00:14;2.30;;;0.90;;
13720;SDS011;6932;51.438;5.470;2022-07-06T15:02:41;1.08;;;0.90;;
13720;SDS011;6932;51.438;5.470;2022-07-06T15:05:07;2.75;;;1.25;;
13720;SDS011;6932;51.438;5.470;2022-07-06T15:07:35;1.30;;;0.88;;
13720;SDS011;6932;51.438;5.470;2022-07-06T15:10:02;1.83;;;1.08;;
13720;SDS011;6932;51.438;5.470;2022-07-06T15:12:30;1.67;;;0.98;;
13720;SDS011;6932;51.438;5.470;2022-07-06T15:14:56;2.05;;;1.10;;
13720;SDS011;6932;51.438;5.470;2022-07-06T15:17:22;2.15;;;1.08;;
13720;SDS011;6932;51.438;5.470;2022-07-06T15:19:48;2.78;;;1.30;;
13720;SDS011;6932;51.438;5.470;2022-07-06T15:22:14;1.33;;;1.00;;